Time;durP1;ratioP1;P1;durP2;ratioP2;P2;SDS_P1;SDS_P2;PMS_P1;PMS_P2;Temp;Humidity;BMP_temperature;BMP_pressure;BME280_temperature;BME280_humidity;BME280_pressure;Samples;Min_cycle;Max_cycle;Signal;HPM_P1;HPM_P2
2021/04/04 00:01:49;;;;;;;14.02;9.45;;;4.90;78.00;;;;;;5071915;28;20251;-47
2021/04/04 00:04:16;;;;;;;13.52;9.00;;;4.60;78.50;;;;;;5072658;28;20199;-48
2021/04/04 00:06:43;;;;;;;10.98;8.02;;;4.50;78.80;;;;;;5073165;28;20282;-48
2021/04/04 00:09:09;;;;;;;15.25;8.70;;;4.40;79.10;;;;;;5072365;28;20227;-48
2021/04/04 00:11:36;;;;;;;13.07;8.95;;;4.50;79.30;;;;;;5071953;28;20238;-48
2021/04/04 00:14:03;;;;;;;12.10;9.05;;;4.70;79.30;;;;;;5071703;28;20203;-48
2021/04/04 00:16:30;;;;;;;12.82;9.18;;;4.30;79.60;;;;;;5071740;28;20282;-48
2021/04/04 00:18:56;;;;;;;11.25;9.05;;;4.80;80.60;;;;;;5071690;28;20314;-48
2021/04/04 00:21:22;;;;;;;13.55;9.10;;;4.50;80.20;;;;;;5071468;28;20223;-48
2021/04/04 00:23:49;;;;;;;12.52;8.93;;;4.40;79.80;;;;;;5071237;28;20213;-48
2021/04/04 00:26:15;;;;;;;15.10;8.68;;;4.30;80.50;;;;;;5071699;28;20433;-48
2021/04/04 00:28:42;;;;;;;14.05;8.45;;;4.20;80.70;;;;;;5071422;28;20222;-48
2021/04/04 00:31:08;;;;;;;11.38;9.25;;;3.90;80.60;;;;;;5071403;28;20306;-48
2021/04/04 00:33:35;;;;;;;14.02;9.35;;;4.40;81.40;;;;;;5070018;28;20294;-48
2021/04/04 00:36:01;;;;;;;14.18;10.05;;;4.00;81.40;;;;;;5071352;28;20686;-48
2021/04/04 00:38:28;;;;;;;15.20;9.68;;;4.50;82.00;;;;;;5071631;28;20480;-48
2021/04/04 00:40:55;;;;;;;14.82;9.57;;;4.40;82.10;;;;;;5071138;28;20250;-48
2021/04/04 00:43:21;;;;;;;13.38;9.70;;;4.40;82.00;;;;;;5071005;28;20309;-48
2021/04/04 00:45:47;;;;;;;20.13;10.93;;;4.60;82.70;;;;;;5071184;28;20223;-48
2021/04/04 00:48:14;;;;;;;14.20;9.65;;;4.50;82.80;;;;;;5071300;28;20195;-48
2021/04/04 00:50:41;;;;;;;18.20;10.88;;;4.20;82.80;;;;;;5071329;28;20265;-48
2021/04/04 00:53:08;;;;;;;15.25;10.25;;;4.20;82.90;;;;;;5069462;28;20652;-48
2021/04/04 00:55:36;;;;;;;17.83;11.10;;;4.20;83.10;;;;;;5071414;28;20203;-48
2021/04/04 00:58:04;;;;;;;17.98;10.98;;;4.40;83.70;;;;;;5071223;28;20267;-48
2021/04/04 01:00:33;;;;;;;19.42;12.45;;;4.50;84.20;;;;;;5070779;28;20310;-48
2021/04/04 01:02:59;;;;;;;17.25;11.13;;;3.80;83.60;;;;;;5070734;28;20241;-48
2021/04/04 01:05:31;;;;;;;16.38;11.05;;;4.50;84.70;;;;;;5070997;28;20199;-48
2021/04/04 01:07:58;;;;;;;15.93;10.20;;;4.10;84.70;;;;;;5070912;28;20302;-48
2021/04/04 01:10:28;;;;;;;15.93;9.60;;;4.30;85.10;;;;;;5069578;28;20191;-48
2021/04/04 01:13:05;;;;;;;14.48;10.85;;;4.20;85.30;;;;;;5070567;28;20231;-48
2021/04/04 01:15:33;;;;;;;14.15;10.43;;;4.10;85.70;;;;;;5070706;28;20240;-48
2021/04/04 01:18:06;;;;;;;14.00;9.02;;;4.30;86.40;;;;;;5070973;28;20202;-48
2021/04/04 01:20:42;;;;;;;16.42;10.32;;;4.30;86.40;;;;;;5071066;28;20211;-48
2021/04/04 01:23:32;;;;;;;13.85;9.45;;;3.60;86.10;;;;;;5071477;28;20195;-48
2021/04/04 01:26:03;;;;;;;12.18;8.40;;;4.30;87.20;;;;;;5072062;28;20222;-48
2021/04/04 01:28:32;;;;;;;14.77;9.55;;;4.20;87.30;;;;;;5071973;28;20248;-49
2021/04/04 01:30:59;;;;;;;13.95;9.05;;;4.10;87.40;;;;;;5071457;28;20215;-48
2021/04/04 01:33:30;;;;;;;11.88;8.65;;;4.20;87.70;;;;;;5070842;28;20621;-48
2021/04/04 01:35:58;;;;;;;13.68;9.82;;;4.00;87.80;;;;;;5070757;28;20191;-49
2021/04/04 01:38:29;;;;;;;11.05;9.07;;;4.10;87.90;;;;;;5070793;28;20674;-49
2021/04/04 01:41:01;;;;;;;11.70;8.85;;;4.20;88.10;;;;;;5070193;28;20218;-49
2021/04/04 01:43:27;;;;;;;11.77;8.95;;;4.20;88.60;;;;;;5070271;28;20465;-49
2021/04/04 01:45:56;;;;;;;11.73;8.43;;;4.10;88.70;;;;;;5070313;28;20219;-49
2021/04/04 01:48:22;;;;;;;11.40;8.27;;;4.00;89.00;;;;;;5070264;28;20199;-48
2021/04/04 01:50:50;;;;;;;13.25;8.30;;;3.80;88.70;;;;;;5070463;28;20215;-48
2021/04/04 01:53:18;;;;;;;13.27;8.75;;;3.60;88.90;;;;;;5070395;28;20218;-48
2021/04/04 01:55:45;;;;;;;13.70;9.35;;;4.00;89.60;;;;;;5070596;28;20195;-49
2021/04/04 01:58:13;;;;;;;12.48;8.70;;;3.90;89.80;;;;;;5072074;28;20203;-49
2021/04/04 02:00:40;;;;;;;11.63;9.45;;;3.60;89.70;;;;;;5074599;28;20298;-48
2021/04/04 02:03:08;;;;;;;14.57;10.10;;;3.70;90.00;;;;;;5074441;28;20605;-48
2021/04/04 02:05:35;;;;;;;12.73;9.20;;;4.00;90.20;;;;;;5074522;28;20195;-49
2021/04/04 02:08:07;;;;;;;14.50;8.80;;;3.30;90.00;;;;;;5074577;28;20191;-49
2021/04/04 02:10:36;;;;;;;13.93;9.10;;;3.70;90.20;;;;;;5072889;28;20199;-48
2021/04/04 02:13:04;;;;;;;11.95;8.05;;;4.00;90.40;;;;;;5073782;28;20195;-49
2021/04/04 02:15:32;;;;;;;10.93;7.97;;;3.70;90.30;;;;;;5074257;28;20219;-49
2021/04/04 02:17:59;;;;;;;12.10;8.48;;;4.00;90.30;;;;;;5074129;28;20571;-48
2021/04/04 02:20:29;;;;;;;12.98;8.15;;;3.90;90.60;;;;;;5072799;28;20352;-49
2021/04/04 02:22:57;;;;;;;10.45;7.32;;;3.40;90.40;;;;;;5073821;28;20687;-49
2021/04/04 02:25:23;;;;;;;11.82;7.68;;;3.80;90.70;;;;;;5074062;28;20199;-49
2021/04/04 02:27:49;;;;;;;9.65;6.30;;;4.10;91.00;;;;;;5073849;28;20191;-49
2021/04/04 02:30:18;;;;;;;11.45;6.70;;;3.70;90.80;;;;;;5073784;28;20195;-49
2021/04/04 02:32:49;;;;;;;10.80;6.85;;;4.00;90.90;;;;;;5073528;28;20590;-49
2021/04/04 02:35:22;;;;;;;14.55;7.90;;;3.90;91.10;;;;;;5072550;28;20199;-49
2021/04/04 02:37:50;;;;;;;9.82;6.50;;;4.00;91.20;;;;;;5073807;28;20203;-49
2021/04/04 02:40:17;;;;;;;13.95;6.93;;;3.80;91.10;;;;;;5073810;28;20215;-49
2021/04/04 02:42:46;;;;;;;13.40;7.30;;;3.90;91.20;;;;;;5071619;28;20203;-48
2021/04/04 02:45:15;;;;;;;11.02;7.00;;;3.70;91.20;;;;;;5072889;28;20226;-49
2021/04/04 02:47:47;;;;;;;8.63;6.53;;;3.70;91.20;;;;;;5073827;28;20285;-49
2021/04/04 02:50:15;;;;;;;10.43;7.28;;;3.80;91.30;;;;;;5073920;28;20225;-49
2021/04/04 02:52:43;;;;;;;9.90;7.32;;;3.70;91.40;;;;;;5073740;28;20223;-48
2021/04/04 02:55:12;;;;;;;9.02;6.78;;;3.90;91.40;;;;;;5074181;28;20286;-48
2021/04/04 02:57:39;;;;;;;7.15;5.47;;;3.60;91.20;;;;;;5073556;28;20612;-49
2021/04/04 03:00:07;;;;;;;7.22;5.97;;;4.00;91.40;;;;;;5073537;28;20270;-49
2021/04/04 03:02:36;;;;;;;8.15;5.72;;;3.90;91.30;;;;;;5073444;28;20215;-49
2021/04/04 03:05:07;;;;;;;7.22;6.10;;;3.80;91.10;;;;;;5073400;28;20230;-49
2021/04/04 03:07:36;;;;;;;9.00;5.15;;;3.90;91.50;;;;;;5073414;28;20269;-49
2021/04/04 03:10:05;;;;;;;5.75;4.53;;;4.00;91.10;;;;;;5071942;28;20656;-49
2021/04/04 03:12:36;;;;;;;7.00;4.85;;;4.10;91.20;;;;;;5072916;28;20262;-49
2021/04/04 03:15:08;;;;;;;8.00;5.38;;;4.00;91.10;;;;;;5073141;28;20246;-49
2021/04/04 03:17:37;;;;;;;7.35;4.80;;;4.10;91.10;;;;;;5073361;28;20219;-49
2021/04/04 03:20:06;;;;;;;8.60;5.05;;;4.10;91.10;;;;;;5073046;28;20191;-48
2021/04/04 03:22:34;;;;;;;6.00;4.70;;;4.10;91.20;;;;;;5072662;28;20230;-49
2021/04/04 03:25:01;;;;;;;7.68;4.93;;;4.20;91.30;;;;;;5072763;28;20206;-49
2021/04/04 03:27:28;;;;;;;7.72;5.57;;;3.20;90.80;;;;;;5072902;28;20195;-49
2021/04/04 03:29:55;;;;;;;5.82;4.20;;;3.80;91.10;;;;;;5072999;28;20258;-49
2021/04/04 03:32:22;;;;;;;7.18;4.65;;;4.10;91.20;;;;;;5072387;28;20231;-49
2021/04/04 03:34:49;;;;;;;12.10;6.60;;;4.10;91.30;;;;;;5072935;28;20219;-49
2021/04/04 03:37:15;;;;;;;6.65;4.97;;;3.10;90.70;;;;;;5071372;28;20202;-49
2021/04/04 03:39:43;;;;;;;6.70;4.93;;;3.80;91.20;;;;;;5072860;28;20223;-49
2021/04/04 03:42:10;;;;;;;9.18;5.05;;;4.00;91.40;;;;;;5072627;28;20671;-49
2021/04/04 03:44:40;;;;;;;6.25;4.45;;;3.50;91.20;;;;;;5072464;28;20222;-48
2021/04/04 03:47:07;;;;;;;7.22;4.78;;;4.00;91.50;;;;;;5072792;28;20585;-49
2021/04/04 03:49:35;;;;;;;6.82;5.15;;;4.10;91.60;;;;;;5072607;28;20206;-49
2021/04/04 03:52:02;;;;;;;5.68;4.65;;;3.90;91.60;;;;;;5072649;28;20207;-49
2021/04/04 03:54:31;;;;;;;7.40;5.25;;;3.60;91.60;;;;;;5072636;28;20278;-49
2021/04/04 03:56:58;;;;;;;7.03;4.45;;;3.70;91.60;;;;;;5072556;28;20196;-49
2021/04/04 03:59:28;;;;;;;11.07;4.60;;;3.90;91.70;;;;;;5072482;28;20223;-49
2021/04/04 04:01:55;;;;;;;7.57;4.82;;;3.60;92.00;;;;;;5072278;28;20246;-49
2021/04/04 04:04:22;;;;;;;5.53;4.53;;;3.90;91.90;;;;;;5071824;28;20192;-49
2021/04/04 04:06:49;;;;;;;6.18;4.35;;;3.50;91.80;;;;;;5072462;28;20723;-49
2021/04/04 04:09:18;;;;;;;8.65;4.68;;;3.70;92.00;;;;;;5072323;28;20282;-49
2021/04/04 04:11:46;;;;;;;10.60;4.70;;;3.50;92.00;;;;;;5072012;28;20330;-49
2021/04/04 04:14:14;;;;;;;7.85;4.93;;;3.80;92.20;;;;;;5071582;28;20282;-49
2021/04/04 04:16:42;;;;;;;5.10;4.30;;;3.60;92.10;;;;;;5071896;28;20233;-49
2021/04/04 04:19:09;;;;;;;6.93;4.60;;;3.70;92.20;;;;;;5072088;28;20221;-49
2021/04/04 04:21:39;;;;;;;5.22;4.47;;;3.60;92.20;;;;;;5071225;28;20222;-49
2021/04/04 04:24:07;;;;;;;5.68;4.20;;;3.80;92.30;;;;;;5071757;28;20668;-49
2021/04/04 04:26:35;;;;;;;5.50;4.03;;;3.30;92.10;;;;;;5071805;28;20195;-49
2021/04/04 04:29:02;;;;;;;5.35;3.90;;;3.50;92.50;;;;;;5071814;28;20314;-49
2021/04/04 04:31:35;;;;;;;8.65;4.50;;;3.80;92.50;;;;;;5071722;28;20306;-49
2021/04/04 04:34:02;;;;;;;8.23;4.68;;;3.80;92.70;;;;;;5071220;28;20226;-48
2021/04/04 04:36:31;;;;;;;7.15;4.57;;;3.40;92.50;;;;;;5071877;28;20591;-48
2021/04/04 04:38:59;;;;;;;10.93;5.40;;;3.50;92.60;;;;;;5071434;28;20203;-48
2021/04/04 04:41:26;;;;;;;7.22;4.38;;;3.40;92.60;;;;;;5096024;22;20231;-46
2021/04/04 04:43:57;;;;;;;5.22;4.10;;;3.50;92.60;;;;;;5072918;28;20195;-45
2021/04/04 04:46:24;;;;;;;5.22;4.03;;;3.60;92.70;;;;;;5071325;28;20318;-46
2021/04/04 04:48:50;;;;;;;6.30;4.40;;;3.80;92.80;;;;;;5072424;28;20187;-43
2021/04/04 04:51:19;;;;;;;5.85;4.03;;;3.60;92.70;;;;;;5072494;28;20286;-43
2021/04/04 04:53:46;;;;;;;11.90;4.63;;;3.50;92.70;;;;;;5072115;28;20191;-44
2021/04/04 04:56:15;;;;;;;6.05;4.07;;;3.80;92.80;;;;;;5072464;28;20198;-43
2021/04/04 04:58:42;;;;;;;7.07;3.90;;;3.70;92.50;;;;;;5072613;28;20671;-44
2021/04/04 05:01:12;;;;;;;6.10;3.90;;;3.80;92.70;;;;;;5072031;28;20592;-46
2021/04/04 05:03:39;;;;;;;7.43;4.10;;;3.90;92.70;;;;;;5071710;28;20679;-44
2021/04/04 05:06:08;;;;;;;5.65;4.15;;;3.80;92.50;;;;;;5071989;28;20301;-45
2021/04/04 05:08:37;;;;;;;6.53;3.70;;;4.00;92.50;;;;;;5072085;28;20257;-45
2021/04/04 05:11:06;;;;;;;7.05;3.97;;;3.90;92.40;;;;;;5072098;28;20306;-45
2021/04/04 05:13:34;;;;;;;7.05;3.80;;;4.10;92.40;;;;;;5071897;28;20219;-46
2021/04/04 05:16:01;;;;;;;8.88;4.10;;;3.90;92.20;;;;;;5071981;28;20195;-45
2021/04/04 05:18:28;;;;;;;7.53;3.58;;;3.80;92.20;;;;;;5071898;28;20191;-46
2021/04/04 05:20:54;;;;;;;4.90;3.38;;;4.20;92.30;;;;;;5072093;28;20223;-43
2021/04/04 05:23:22;;;;;;;10.60;3.67;;;4.00;92.20;;;;;;5071683;28;20211;-43
2021/04/04 05:25:50;;;;;;;6.88;3.65;;;4.20;92.30;;;;;;5071910;28;20195;-43
2021/04/04 05:28:16;;;;;;;10.27;4.00;;;3.70;92.00;;;;;;5071977;28;20208;-45
2021/04/04 05:30:43;;;;;;;6.40;2.80;;;4.30;92.10;;;;;;5072016;28;20190;-43
2021/04/04 05:33:09;;;;;;;4.28;2.70;;;4.30;92.00;;;;;;5070945;28;20225;-43
2021/04/04 05:35:38;;;;;;;6.93;3.70;;;4.40;91.80;;;;;;5071877;28;20191;-43
2021/04/04 05:38:06;;;;;;;6.25;3.67;;;4.40;91.50;;;;;;5071868;28;20284;-44
2021/04/04 05:40:33;;;;;;;6.68;2.70;;;4.40;91.50;;;;;;5071683;28;20690;-45
2021/04/04 05:43:01;;;;;;;5.53;2.80;;;4.60;91.40;;;;;;5071539;28;20211;-43
2021/04/04 05:45:31;;;;;;;4.32;2.72;;;4.70;91.20;;;;;;5072499;28;20191;-45
2021/04/04 05:48:11;;;;;;;10.90;3.88;;;4.80;91.00;;;;;;5071774;28;20198;-45
2021/04/04 05:50:59;;;;;;;5.07;2.58;;;5.00;90.50;;;;;;5071749;28;20198;-45
2021/04/04 05:53:31;;;;;;;7.25;3.13;;;5.10;90.40;;;;;;5068077;28;20208;-45
2021/04/04 05:56:05;;;;;;;3.65;2.08;;;5.20;89.80;;;;;;5071570;28;20203;-45
2021/04/04 05:58:38;;;;;;;3.25;2.83;;;5.40;89.40;;;;;;5071356;28;20195;-45
2021/04/04 06:01:21;;;;;;;3.50;2.58;;;5.30;88.40;;;;;;5071435;28;20222;-45
2021/04/04 06:04:03;;;;;;;4.95;2.50;;;5.40;87.30;;;;;;5071346;28;20695;-45
2021/04/04 06:07:15;;;;;;;4.07;2.53;;;5.70;86.70;;;;;;5071482;28;20215;-45
2021/04/04 06:10:03;;;;;;;5.40;2.58;;;5.60;85.80;;;;;;5071773;28;20214;-45
2021/04/04 06:12:40;;;;;;;5.20;2.10;;;5.60;85.10;;;;;;5070964;28;20211;-45
2021/04/04 06:15:19;;;;;;;4.68;2.97;;;5.80;84.60;;;;;;5071423;28;20199;-46
2021/04/04 06:17:55;;;;;;;5.53;2.80;;;5.90;83.60;;;;;;5071460;28;20198;-46
2021/04/04 06:20:39;;;;;;;4.40;2.40;;;5.80;82.40;;;;;;5071212;28;20541;-46
2021/04/04 06:23:16;;;;;;;4.10;2.45;;;5.90;81.90;;;;;;5070711;28;20223;-46
2021/04/04 06:26:04;;;;;;;4.00;3.30;;;6.00;81.00;;;;;;5071314;28;20635;-44
2021/04/04 06:28:44;;;;;;;7.68;2.60;;;6.50;81.40;;;;;;5071415;28;20602;-45
2021/04/04 06:31:21;;;;;;;3.47;2.53;;;6.40;80.40;;;;;;5071380;28;20285;-47
2021/04/04 06:33:54;;;;;;;3.63;2.87;;;6.50;79.90;;;;;;5071346;28;20464;-45
2021/04/04 06:36:36;;;;;;;5.13;2.90;;;6.40;79.20;;;;;;5071260;28;20624;-45
2021/04/04 06:39:12;;;;;;;3.10;2.80;;;6.60;78.30;;;;;;5071146;28;20437;-44
2021/04/04 06:41:52;;;;;;;3.80;2.80;;;6.60;78.30;;;;;;5070943;28;20844;-45
2021/04/04 06:44:26;;;;;;;4.03;2.50;;;6.90;78.50;;;;;;5072097;28;20772;-44
2021/04/04 06:46:59;;;;;;;4.23;3.30;;;6.60;77.90;;;;;;5076523;28;20430;-45
2021/04/04 06:49:51;;;;;;;3.70;2.83;;;6.60;77.40;;;;;;5077131;28;20445;-46
2021/04/04 06:52:37;;;;;;;6.80;3.40;;;6.60;77.00;;;;;;5074663;28;20441;-46
2021/04/04 06:55:07;;;;;;;5.50;3.10;;;6.60;77.10;;;;;;5074674;28;20524;-44
2021/04/04 06:57:57;;;;;;;4.43;3.23;;;7.00;77.30;;;;;;5074651;28;20925;-43
2021/04/04 07:00:26;;;;;;;5.50;3.53;;;6.70;78.10;;;;;;5075105;28;20463;-46
2021/04/04 07:03:00;;;;;;;6.00;3.60;;;6.40;78.10;;;;;;5075134;28;20461;-45
2021/04/04 07:05:31;;;;;;;5.10;4.27;;;7.00;79.00;;;;;;5074874;28;20938;-44
2021/04/04 07:08:19;;;;;;;11.93;6.03;;;6.80;79.10;;;;;;5074914;28;20430;-45
2021/04/04 07:11:02;;;;;;;7.70;4.40;;;7.00;79.70;;;;;;5074197;28;20435;-46
2021/04/04 07:13:45;;;;;;;4.23;3.23;;;7.10;80.50;;;;;;5072925;28;20504;-43
2021/04/04 07:16:34;;;;;;;9.90;4.30;;;7.10;80.80;;;;;;5074308;28;20512;-44
2021/04/04 07:19:33;;;;;;;5.93;3.07;;;6.90;80.70;;;;;;5074304;28;20435;-46
2021/04/04 07:22:12;;;;;;;5.40;3.80;;;6.50;80.40;;;;;;5073889;28;20485;-44
2021/04/04 07:24:56;;;;;;;7.60;3.70;;;6.50;80.40;;;;;;5073821;28;20434;-47
2021/04/04 07:27:32;;;;;;;6.83;4.10;;;7.30;81.20;;;;;;5074235;28;20533;-45
2021/04/04 07:30:28;;;;;;;5.40;3.53;;;7.00;81.00;;;;;;5073958;28;20863;-46
2021/04/04 07:32:59;;;;;;;6.47;3.80;;;6.90;80.70;;;;;;5073580;28;20465;-44
2021/04/04 07:35:32;;;;;;;4.47;3.07;;;7.50;80.70;;;;;;5073795;28;20466;-44
2021/04/04 07:38:02;;;;;;;5.03;3.13;;;7.50;80.10;;;;;;5074538;28;20888;-45
2021/04/04 07:40:36;;;;;;;7.47;2.90;;;7.50;79.80;;;;;;5073609;28;20426;-45
2021/04/04 07:43:05;;;;;;;5.30;3.17;;;6.90;78.50;;;;;;5073037;28;20440;-45
2021/04/04 07:45:37;;;;;;;4.83;2.80;;;7.30;77.70;;;;;;5073616;28;20424;-44
2021/04/04 07:48:16;;;;;;;5.43;2.70;;;7.50;78.40;;;;;;5073693;28;20465;-44
2021/04/04 07:50:48;;;;;;;5.90;2.90;;;7.30;77.30;;;;;;5073471;28;20483;-45
2021/04/04 07:53:19;;;;;;;4.50;2.87;;;6.90;76.50;;;;;;5073510;28;20438;-46
2021/04/04 07:55:52;;;;;;;4.43;2.77;;;7.40;76.70;;;;;;5072237;28;20489;-44
2021/04/04 07:58:23;;;;;;;5.20;3.17;;;7.50;76.40;;;;;;5073475;28;20485;-43
2021/04/04 08:00:57;;;;;;;3.70;2.80;;;7.50;76.90;;;;;;5073108;28;20482;-44
2021/04/04 08:03:29;;;;;;;5.00;3.27;;;7.50;77.30;;;;;;5071159;28;20408;-45
2021/04/04 08:06:11;;;;;;;5.53;3.20;;;7.70;77.60;;;;;;5073012;28;20442;-45
2021/04/04 08:08:41;;;;;;;9.43;3.67;;;7.30;76.60;;;;;;5073128;28;20917;-43
2021/04/04 08:11:19;;;;;;;8.80;3.90;;;7.60;79.20;;;;;;5073861;28;20516;-45
2021/04/04 08:13:51;;;;;;;15.20;6.33;;;7.50;81.30;;;;;;5073021;28;20442;-46
2021/04/04 08:16:23;;;;;;;11.17;4.80;;;7.50;81.60;;;;;;5073283;28;20438;-45
2021/04/04 08:18:49;;;;;;;6.63;4.40;;;7.60;82.10;;;;;;5073055;28;20439;-46
2021/04/04 08:21:21;;;;;;;11.50;5.07;;;8.00;84.00;;;;;;5072423;28;20498;-45
2021/04/04 08:23:52;;;;;;;17.43;5.40;;;7.30;84.50;;;;;;5072529;28;20440;-46
2021/04/04 08:26:25;;;;;;;12.60;5.93;;;8.20;86.60;;;;;;5072729;28;20431;-45
2021/04/04 08:28:56;;;;;;;11.10;5.63;;;7.80;87.30;;;;;;5072929;28;20998;-45
2021/04/04 08:31:27;;;;;;;10.60;6.60;;;7.50;87.30;;;;;;5072664;28;20437;-46
2021/04/04 08:33:58;;;;;;;9.97;5.63;;;8.00;87.80;;;;;;5072502;28;20427;-45
2021/04/04 08:36:28;;;;;;;9.90;5.37;;;7.90;88.30;;;;;;5072777;28;20811;-46
2021/04/04 08:38:58;;;;;;;7.70;4.90;;;7.50;87.70;;;;;;5073053;28;20466;-45
2021/04/04 08:41:29;;;;;;;16.00;5.60;;;7.50;87.70;;;;;;5072128;28;20515;-45
2021/04/04 08:43:59;;;;;;;12.90;6.43;;;7.90;87.60;;;;;;5072471;28;20432;-46
2021/04/04 08:46:32;;;;;;;11.63;5.97;;;8.00;87.30;;;;;;5072348;28;20442;-45
2021/04/04 08:48:59;;;;;;;7.97;5.17;;;8.10;87.80;;;;;;5072503;28;20509;-45
2021/04/04 08:51:29;;;;;;;11.23;6.90;;;8.00;87.50;;;;;;5072537;28;20469;-45
2021/04/04 08:53:57;;;;;;;10.43;5.80;;;8.10;87.70;;;;;;5072738;28;20931;-45
2021/04/04 08:56:27;;;;;;;10.53;6.30;;;8.00;87.50;;;;;;5073113;28;20438;-44
2021/04/04 08:58:57;;;;;;;10.80;5.83;;;8.00;87.50;;;;;;5073202;28;20459;-44
2021/04/04 09:01:27;;;;;;;16.43;7.30;;;8.20;87.80;;;;;;5071097;28;20500;-45
2021/04/04 09:03:59;;;;;;;12.60;6.83;;;8.10;87.50;;;;;;5070981;28;20448;-46
2021/04/04 09:06:26;;;;;;;15.40;7.33;;;8.50;87.70;;;;;;5072942;28;20432;-45
2021/04/04 09:08:53;;;;;;;15.53;6.50;;;8.30;88.20;;;;;;5072686;28;20426;-46
2021/04/04 09:11:21;;;;;;;10.90;6.90;;;8.60;88.50;;;;;;5072259;28;20455;-46
2021/04/04 09:13:50;;;;;;;16.17;7.00;;;8.60;88.00;;;;;;5072045;28;20841;-46
2021/04/04 09:16:17;;;;;;;18.30;8.40;;;8.70;88.80;;;;;;5072088;28;20444;-46
2021/04/04 09:18:47;;;;;;;16.23;8.40;;;8.40;88.60;;;;;;5072290;28;20429;-46
2021/04/04 09:21:15;;;;;;;16.00;8.03;;;8.40;89.00;;;;;;5072163;28;20479;-46
2021/04/04 09:23:44;;;;;;;15.40;6.40;;;8.70;89.90;;;;;;5071782;28;20493;-46
2021/04/04 09:26:14;;;;;;;12.80;6.93;;;8.70;89.10;;;;;;5072318;28;20464;-46
2021/04/04 09:28:42;;;;;;;13.13;6.87;;;8.80;89.00;;;;;;5072556;28;20439;-46
2021/04/04 09:31:18;;;;;;;14.10;6.77;;;9.00;89.20;;;;;;5071979;28;20453;-46
2021/04/04 09:33:57;;;;;;;11.20;5.90;;;9.00;88.80;;;;;;5071783;28;20438;-46
2021/04/04 09:36:23;;;;;;;13.77;7.23;;;9.10;88.10;;;;;;5070448;28;20464;-45
2021/04/04 09:38:52;;;;;;;12.53;6.40;;;8.80;88.20;;;;;;5071769;28;20463;-45
2021/04/04 09:41:19;;;;;;;11.23;6.23;;;8.80;87.60;;;;;;5070204;28;20487;-46
2021/04/04 09:43:59;;;;;;;13.37;6.50;;;8.90;87.60;;;;;;5071533;28;20466;-46
2021/04/04 09:46:28;;;;;;;16.67;6.60;;;9.30;87.50;;;;;;5072019;28;20490;-45
2021/04/04 09:48:54;;;;;;;12.33;6.40;;;9.30;87.30;;;;;;5071855;28;20432;-45
2021/04/04 09:51:21;;;;;;;13.27;6.83;;;8.60;86.40;;;;;;5071700;28;20496;-45
2021/04/04 09:53:48;;;;;;;15.10;6.13;;;9.30;87.50;;;;;;5071517;28;20425;-45
2021/04/04 09:56:16;;;;;;;11.30;6.47;;;9.40;88.20;;;;;;5071752;28;20666;-45
2021/04/04 09:58:44;;;;;;;13.10;6.93;;;9.30;88.40;;;;;;5071880;28;20832;-44
2021/04/04 10:01:15;;;;;;;10.90;6.83;;;9.10;87.40;;;;;;5071460;28;20835;-45
2021/04/04 10:03:42;;;;;;;12.80;6.80;;;9.70;87.70;;;;;;5071207;28;20986;-45
2021/04/04 10:06:11;;;;;;;14.17;7.03;;;9.70;87.10;;;;;;5071949;28;20913;-46
2021/04/04 10:08:37;;;;;;;12.33;6.37;;;9.80;87.20;;;;;;5071121;28;20436;-46
2021/04/04 10:11:15;;;;;;;18.23;6.70;;;9.70;86.50;;;;;;5071070;28;20434;-45
2021/04/04 10:13:41;;;;;;;13.73;6.50;;;10.20;85.40;;;;;;5071373;28;20425;-45
2021/04/04 10:16:18;;;;;;;14.20;5.83;;;9.70;86.30;;;;;;5071521;28;20523;-44
2021/04/04 10:19:00;;;;;;;17.17;7.90;;;10.30;85.00;;;;;;5070992;28;20449;-44
2021/04/04 10:21:27;;;;;;;12.83;7.70;;;9.70;85.40;;;;;;5075651;28;20564;-45
2021/04/04 10:23:53;;;;;;;10.70;6.40;;;9.90;86.70;;;;;;5075657;28;20410;-45
2021/04/04 10:26:22;;;;;;;11.17;6.40;;;10.20;85.80;;;;;;5075758;28;20437;-46
2021/04/04 10:28:51;;;;;;;13.20;6.60;;;10.10;85.40;;;;;;5075525;28;20437;-45
2021/04/04 10:31:19;;;;;;;16.80;6.30;;;9.80;85.80;;;;;;5075892;28;20534;-46
2021/04/04 10:33:55;;;;;;;11.53;6.40;;;10.00;84.20;;;;;;5075070;28;20558;-46
2021/04/04 10:36:23;;;;;;;13.83;6.63;;;9.70;86.30;;;;;;5075279;28;20425;-46
2021/04/04 10:38:50;;;;;;;15.70;6.30;;;9.70;86.00;;;;;;5075301;28;20434;-46
2021/04/04 10:41:29;;;;;;;12.27;5.80;;;10.00;85.20;;;;;;5075213;28;20488;-46
2021/04/04 10:43:56;;;;;;;12.43;6.10;;;10.00;84.90;;;;;;5075874;28;20445;-45
2021/04/04 10:46:27;;;;;;;12.13;5.67;;;9.90;85.90;;;;;;5075204;28;20494;-46
2021/04/04 10:48:56;;;;;;;9.53;6.63;;;10.10;84.50;;;;;;5075995;28;20952;-45
2021/04/04 10:51:23;;;;;;;11.17;5.90;;;10.40;84.50;;;;;;5075392;28;20452;-47
2021/04/04 10:53:49;;;;;;;7.73;5.13;;;10.70;84.30;;;;;;5074584;28;20453;-44
2021/04/04 10:56:17;;;;;;;20.90;5.50;;;10.10;83.00;;;;;;5075172;28;20535;-44
2021/04/04 10:58:44;;;;;;;10.37;5.03;;;10.30;83.30;;;;;;5075338;28;20520;-45
2021/04/04 11:01:12;;;;;;;7.67;4.77;;;10.20;83.60;;;;;;5075070;28;20473;-45
2021/04/04 11:03:40;;;;;;;12.53;5.57;;;10.20;84.00;;;;;;5074723;28;20433;-46
2021/04/04 11:06:06;;;;;;;10.53;5.60;;;10.20;84.30;;;;;;5076060;28;20849;-45
2021/04/04 11:08:34;;;;;;;12.70;5.43;;;10.50;84.50;;;;;;5074895;28;20433;-45
2021/04/04 11:11:01;;;;;;;14.30;4.80;;;10.50;83.80;;;;;;5075925;28;20869;-46
2021/04/04 11:13:28;;;;;;;9.43;5.07;;;10.60;83.20;;;;;;5076378;28;20495;-45
2021/04/04 11:15:57;;;;;;;9.43;5.20;;;10.80;82.60;;;;;;5074834;28;20434;-44
2021/04/04 11:18:29;;;;;;;17.57;4.90;;;11.10;82.60;;;;;;5074989;28;20460;-46
2021/04/04 11:20:59;;;;;;;9.83;5.37;;;11.10;82.10;;;;;;5075000;28;20455;-46
2021/04/04 11:23:26;;;;;;;10.50;5.93;;;10.90;80.00;;;;;;5073172;28;20456;-46
2021/04/04 11:25:53;;;;;;;8.77;5.40;;;11.60;80.70;;;;;;5076741;28;20433;-45
2021/04/04 11:28:22;;;;;;;12.27;5.83;;;11.40;80.60;;;;;;5076737;28;20441;-47
2021/04/04 11:30:49;;;;;;;12.77;7.33;;;11.50;79.70;;;;;;5074705;28;20438;-46
2021/04/04 11:33:28;;;;;;;14.27;5.20;;;11.10;79.30;;;;;;5076640;28;20430;-45
2021/04/04 11:36:06;;;;;;;7.43;5.47;;;11.30;79.30;;;;;;5076893;28;20525;-45
2021/04/04 11:38:34;;;;;;;11.60;4.73;;;11.20;78.60;;;;;;5077220;28;21092;-46
2021/04/04 11:41:17;;;;;;;15.80;5.70;;;11.00;77.70;;;;;;5076243;28;20897;-46
2021/04/04 11:43:45;;;;;;;10.67;5.10;;;11.00;78.40;;;;;;5076209;28;20442;-46
2021/04/04 11:46:43;;;;;;;16.23;5.90;;;11.30;79.60;;;;;;5076626;28;21011;-45
2021/04/04 11:49:45;;;;;;;8.03;4.57;;;11.30;79.50;;;;;;5075886;28;20449;-45
2021/04/04 11:52:39;;;;;;;15.07;5.17;;;11.40;79.20;;;;;;5072816;28;20478;-46
2021/04/04 11:55:07;;;;;;;9.30;5.23;;;11.00;79.00;;;;;;5073671;28;20910;-45
2021/04/04 11:57:36;;;;;;;8.90;4.10;;;11.10;78.90;;;;;;5074131;28;20437;-45
2021/04/04 12:00:07;;;;;;;13.60;5.60;;;11.20;79.10;;;;;;5073610;28;20425;-45
2021/04/04 12:02:35;;;;;;;11.40;5.97;;;11.40;78.60;;;;;;5074197;28;20473;-46
2021/04/04 12:05:08;;;;;;;11.03;5.43;;;11.00;78.30;;;;;;5075758;28;20450;-46
2021/04/04 12:07:43;;;;;;;14.00;5.10;;;11.40;78.50;;;;;;5077341;28;20441;-44
2021/04/04 12:10:12;;;;;;;8.37;4.37;;;11.40;78.70;;;;;;5075130;28;20459;-43
2021/04/04 12:12:39;;;;;;;12.20;4.83;;;11.30;79.20;;;;;;5074288;28;20833;-45
2021/04/04 12:15:06;;;;;;;11.50;5.40;;;11.50;79.30;;;;;;5075425;28;20752;-45
2021/04/04 12:17:33;;;;;;;9.87;4.57;;;11.50;78.70;;;;;;5075676;28;20500;-44
2021/04/04 12:20:00;;;;;;;9.03;4.43;;;12.00;79.00;;;;;;5074402;28;20965;-45
2021/04/04 12:22:35;;;;;;;13.80;5.20;;;11.80;77.20;;;;;;5074408;28;20483;-45
2021/04/04 12:25:03;;;;;;;9.57;4.60;;;11.60;75.50;;;;;;5075382;28;20421;-46
2021/04/04 12:27:29;;;;;;;9.73;4.80;;;12.10;74.90;;;;;;5075365;28;20438;-44
2021/04/04 12:29:57;;;;;;;11.77;4.80;;;11.90;74.90;;;;;;5073895;28;20426;-45
2021/04/04 12:32:25;;;;;;;8.43;4.43;;;12.10;74.40;;;;;;5073562;28;21020;-44
2021/04/04 12:34:54;;;;;;;13.07;4.60;;;12.40;74.10;;;;;;5074928;28;20435;-44
2021/04/04 12:37:22;;;;;;;11.47;5.20;;;12.80;74.80;;;;;;5074529;28;20445;-45
2021/04/04 12:39:49;;;;;;;7.90;4.63;;;12.40;73.80;;;;;;5073291;28;20526;-45
2021/04/04 12:42:17;;;;;;;14.17;5.40;;;12.30;73.30;;;;;;5071704;28;20483;-46
2021/04/04 12:44:45;;;;;;;8.77;4.30;;;11.60;73.40;;;;;;5072235;28;20924;-44
2021/04/04 12:47:17;;;;;;;12.30;5.10;;;12.00;74.10;;;;;;5072337;28;20465;-44
2021/04/04 12:49:51;;;;;;;9.37;4.27;;;12.50;74.10;;;;;;5072290;28;20462;-45
2021/04/04 12:52:34;;;;;;;12.57;6.03;;;12.10;73.60;;;;;;5071720;28;20451;-46
2021/04/04 12:55:10;;;;;;;8.90;4.70;;;11.90;73.80;;;;;;5071753;28;20495;-45
2021/04/04 12:57:37;;;;;;;8.27;4.70;;;12.20;73.70;;;;;;5072600;28;20430;-47
2021/04/04 13:00:06;;;;;;;12.83;9.13;;;12.10;72.10;;;;;;5070939;28;20463;-44
2021/04/04 13:02:33;;;;;;;8.23;5.30;;;12.10;71.90;;;;;;5071078;28;20882;-44
2021/04/04 13:04:59;;;;;;;5.90;4.00;;;12.40;72.20;;;;;;5069907;28;20442;-45
2021/04/04 13:07:27;;;;;;;9.73;5.13;;;12.60;73.00;;;;;;5070092;28;20898;-44